Time;durP1;ratioP1;P1;durP2;ratioP2;P2;SDS_P1;SDS_P2;PMS_P1;PMS_P2;Temp;Humidity;BMP_temperature;BMP_pressure;BME280_temperature;BME280_humidity;BME280_pressure;Samples;Min_cycle;Max_cycle;Signal;HPM_P1;HPM_P2
2021/09/04 00:00:50;;;;;;;;;;;;;;;21.06;57.84;101067.81;4884984;29;809;-47
2021/09/04 00:03:15;;;;;;;;;;;;;;;21.27;57.44;101070.31;4884895;29;754;-46
2021/09/04 00:05:42;;;;;;;;;;;;;;;21.13;57.38;101071.03;4884636;29;821;-49
2021/09/04 00:08:07;;;;;;;;;;;;;;;20.68;56.76;101065.81;4884643;29;856;-45
2021/09/04 00:10:33;;;;;;;;;;;;;;;19.88;54.29;101063.53;4884603;29;1907;-47
2021/09/04 00:12:59;;;;;;;;;;;;;;;19.54;50.77;101058.81;4884842;29;817;-50
2021/09/04 00:15:28;;;;;;;;;;;;;;;18.96;48.50;101054.75;4884070;29;967;-47
2021/09/04 00:17:55;;;;;;;;;;;;;;;18.45;47.57;101050.22;4884274;29;1470;-46
2021/09/04 00:20:21;;;;;;;;;;;;;;;18.55;48.20;101050.22;4884775;29;801;-46
2021/09/04 00:22:46;;;;;;;;;;;;;;;18.90;51.41;101053.13;4884141;29;833;-45
2021/09/04 00:25:12;;;;;;;;;;;;;;;19.29;54.06;101058.72;4884639;29;837;-45
2021/09/04 00:27:37;;;;;;;;;;;;;;;19.61;55.23;101065.66;4884830;29;853;-46
2021/09/04 00:30:03;;;;;;;;;;;;;;;19.75;57.02;101059.50;4883481;29;1002;-45
2021/09/04 00:32:28;;;;;;;;;;;;;;;19.93;58.04;101071.78;4884486;29;2013;-44
2021/09/04 00:34:54;;;;;;;;;;;;;;;20.26;57.97;101063.75;4884183;29;845;-44
2021/09/04 00:37:19;;;;;;;;;;;;;;;20.66;57.54;101067.19;4884155;29;761;-47
2021/09/04 00:39:45;;;;;;;;;;;;;;;20.74;57.77;101057.47;4884674;29;805;-47
2021/09/04 00:42:12;;;;;;;;;;;;;;;20.77;58.06;101056.88;4884377;29;769;-44
2021/09/04 00:44:37;;;;;;;;;;;;;;;20.83;58.17;101051.00;4883247;29;990;-47
2021/09/04 00:47:03;;;;;;;;;;;;;;;20.99;57.72;101048.03;4884253;29;761;-44
2021/09/04 00:49:29;;;;;;;;;;;;;;;21.08;57.70;101039.88;4882954;29;1141;-48
2021/09/04 00:51:54;;;;;;;;;;;;;;;21.11;57.84;101051.19;4883631;29;1974;-46
2021/09/04 00:54:20;;;;;;;;;;;;;;;20.96;57.20;101045.84;4883984;29;813;-46
2021/09/04 00:56:45;;;;;;;;;;;;;;;20.33;55.78;101044.91;4883763;29;805;-45
2021/09/04 00:59:11;;;;;;;;;;;;;;;19.74;53.21;101038.53;4883246;29;1010;-46
2021/09/04 01:01:36;;;;;;;;;;;;;;;19.21;50.61;101044.69;4884255;29;797;-45
2021/09/04 01:04:03;;;;;;;;;;;;;;;18.82;48.41;101040.75;4883732;29;818;-46
2021/09/04 01:06:29;;;;;;;;;;;;;;;18.50;48.81;101038.38;4883566;29;868;-44
2021/09/04 01:08:54;;;;;;;;;;;;;;;18.86;50.45;101028.03;4883855;29;789;-46
2021/09/04 01:11:21;;;;;;;;;;;;;;;19.15;53.65;101028.19;4882166;29;1919;-44
2021/09/04 01:13:46;;;;;;;;;;;;;;;19.61;55.28;101026.22;4881700;29;991;-47
2021/09/04 01:16:12;;;;;;;;;;;;;;;19.77;56.87;101022.22;4883436;29;1025;-44
2021/09/04 01:18:37;;;;;;;;;;;;;;;20.10;57.45;101016.97;4883505;29;785;-48
2021/09/04 01:21:03;;;;;;;;;;;;;;;20.29;57.92;101019.81;4883180;29;777;-45
2021/09/04 01:23:29;;;;;;;;;;;;;;;20.43;58.05;101019.94;4883538;29;733;-45
2021/09/04 01:25:54;;;;;;;;;;;;;;;20.64;57.99;101026.03;4883095;29;829;-46
2021/09/04 01:28:20;;;;;;;;;;;;;;;20.75;58.19;101026.78;4883028;29;1013;-46
2021/09/04 01:30:46;;;;;;;;;;;;;;;21.01;57.47;101032.78;4883329;29;1919;-45
2021/09/04 01:33:11;;;;;;;;;;;;;;;21.24;57.07;101029.41;4883315;29;729;-45
2021/09/04 01:35:36;;;;;;;;;;;;;;;21.11;57.42;101029.06;4881650;29;1095;-47
2021/09/04 01:38:02;;;;;;;;;;;;;;;21.27;57.01;101021.34;4883527;29;729;-45
2021/09/04 01:40:27;;;;;;;;;;;;;;;20.87;56.94;101014.47;4883255;29;777;-46
2021/09/04 01:42:53;;;;;;;;;;;;;;;20.28;55.57;101012.63;4883216;29;853;-46
2021/09/04 01:45:18;;;;;;;;;;;;;;;19.82;52.37;101013.09;4882505;29;954;-47
2021/09/04 01:47:44;;;;;;;;;;;;;;;19.20;51.06;101019.06;4883091;29;789;-46
2021/09/04 01:50:10;;;;;;;;;;;;;;;18.86;48.28;101017.03;4882788;29;840;-45
2021/09/04 01:52:38;;;;;;;;;;;;;;;18.41;47.40;101010.59;4883033;29;1960;-49
2021/09/04 01:55:04;;;;;;;;;;;;;;;18.50;48.52;101016.34;4882824;29;777;-45
2021/09/04 01:57:29;;;;;;;;;;;;;;;18.90;51.75;101006.28;4882630;29;781;-45
2021/09/04 01:59:55;;;;;;;;;;;;;;;19.24;54.11;101009.13;4880884;29;1018;-47
2021/09/04 02:02:20;;;;;;;;;;;;;;;19.63;55.64;101010.22;4882885;29;509;-45
2021/09/04 02:04:46;;;;;;;;;;;;;;;19.73;57.57;101012.88;4882466;29;816;-45
2021/09/04 02:07:11;;;;;;;;;;;;;;;20.12;57.57;101020.28;4882496;29;789;-42
2021/09/04 02:09:37;;;;;;;;;;;;;;;20.25;58.24;101023.47;4883225;29;813;-47
2021/09/04 02:12:02;;;;;;;;;;;;;;;20.48;58.07;101019.88;4882647;29;1907;-45
2021/09/04 02:14:28;;;;;;;;;;;;;;;20.35;59.06;101018.63;4882003;29;939;-48
2021/09/04 02:16:53;;;;;;;;;;;;;;;20.66;58.41;101012.75;4881128;29;1313;-48
2021/09/04 02:19:19;;;;;;;;;;;;;;;20.85;57.82;101010.03;4882486;29;777;-45
2021/09/04 02:21:45;;;;;;;;;;;;;;;21.15;57.15;100996.94;4882513;29;794;-46
2021/09/04 02:24:11;;;;;;;;;;;;;;;21.30;56.79;101003.34;4882594;29;781;-45
2021/09/04 02:26:38;;;;;;;;;;;;;;;21.29;56.92;101005.25;4882033;29;809;-45
2021/09/04 02:29:04;;;;;;;;;;;;;;;21.20;57.16;101010.66;4882012;29;1025;-47
2021/09/04 02:31:29;;;;;;;;;;;;;;;20.98;56.78;101000.19;4882334;29;1911;-45
2021/09/04 02:33:56;;;;;;;;;;;;;;;20.32;55.38;100999.06;4882678;29;777;-45
2021/09/04 02:36:23;;;;;;;;;;;;;;;19.68;52.74;100988.09;4881984;29;805;-45
2021/09/04 02:38:49;;;;;;;;;;;;;;;19.22;50.39;100988.44;4882785;29;761;-45
2021/09/04 02:41:15;;;;;;;;;;;;;;;19.03;48.05;100982.78;4882471;29;833;-44
2021/09/04 02:43:40;;;;;;;;;;;;;;;18.64;48.47;100982.41;4881927;29;951;-47
2021/09/04 02:46:07;;;;;;;;;;;;;;;19.15;51.13;100988.75;4882327;29;796;-47
2021/09/04 02:48:34;;;;;;;;;;;;;;;19.57;53.58;100992.03;4865245;29;877;-45
2021/09/04 02:50:59;;;;;;;;;;;;;;;19.90;55.14;100984.88;4882147;29;1907;-46
2021/09/04 02:53:25;;;;;;;;;;;;;;;20.04;56.49;100984.22;4882216;29;769;-44
2021/09/04 02:55:53;;;;;;;;;;;;;;;20.42;56.96;100982.38;4881095;29;766;-43
2021/09/04 02:58:19;;;;;;;;;;;;;;;20.48;57.59;100974.84;4882000;29;1018;-45
2021/09/04 03:00:44;;;;;;;;;;;;;;;20.48;58.29;100977.59;4882369;29;858;-44
2021/09/04 03:03:10;;;;;;;;;;;;;;;20.51;58.85;100966.81;4882022;29;796;-45
2021/09/04 03:05:38;;;;;;;;;;;;;;;20.63;58.85;100971.06;4881468;29;805;-47
2021/09/04 03:08:06;;;;;;;;;;;;;;;21.03;57.76;100964.19;4881852;29;926;-46
2021/09/04 03:10:32;;;;;;;;;;;;;;;21.02;57.96;100964.47;4882268;29;1977;-45
2021/09/04 03:13:00;;;;;;;;;;;;;;;21.37;56.79;100968.63;4881758;29;813;-45
2021/09/04 03:15:25;;;;;;;;;;;;;;;21.46;56.39;100967.94;4881642;29;951;-46
2021/09/04 03:17:51;;;;;;;;;;;;;;;20.97;57.06;100961.78;4880135;29;1328;-46
2021/09/04 03:20:19;;;;;;;;;;;;;;;20.57;56.13;100959.28;4881599;29;765;-47
2021/09/04 03:22:46;;;;;;;;;;;;;;;20.20;54.12;100965.53;4881833;29;856;-47
2021/09/04 03:25:12;;;;;;;;;;;;;;;19.79;52.55;100964.84;4882121;29;849;-51
2021/09/04 03:27:38;;;;;;;;;;;;;;;19.44;51.50;100958.50;4881522;29;774;-49
2021/09/04 03:30:05;;;;;;;;;;;;;;;19.08;50.62;100963.47;4881738;29;955;-47
2021/09/04 03:32:31;;;;;;;;;;;;;;;19.06;49.28;100961.00;4881935;29;1915;-42
2021/09/04 03:34:58;;;;;;;;;;;;;;;19.03;49.90;100963.47;4885291;29;859;-43
2021/09/04 03:37:24;;;;;;;;;;;;;;;19.10;50.88;100970.34;4885145;29;813;-43
2021/09/04 03:39:49;;;;;;;;;;;;;;;19.07;52.26;100984.69;4885517;29;721;-44
2021/09/04 03:42:16;;;;;;;;;;;;;;;19.34;52.82;100991.66;4885398;29;789;-45
2021/09/04 03:44:41;;;;;;;;;;;;;;;19.40;53.26;100990.50;4884779;29;943;-43
2021/09/04 03:47:08;;;;;;;;;;;;;;;19.04;54.96;100989.94;4885159;29;813;-51
2021/09/04 03:49:35;;;;;;;;;;;;;;;19.22;54.82;100991.22;4884901;29;915;-52
2021/09/04 03:52:03;;;;;;;;;;;;;;;19.45;55.15;100976.69;4885003;29;1960;-42
2021/09/04 03:54:29;;;;;;;;;;;;;;;19.73;56.39;100976.19;4885420;29;809;-44
2021/09/04 03:56:55;;;;;;;;;;;;;;;20.04;57.15;100973.97;4884497;29;813;-56
2021/09/04 03:59:22;;;;;;;;;;;;;;;20.25;57.64;100976.53;4884728;29;923;-52
2021/09/04 04:01:48;;;;;;;;;;;;;;;20.52;57.59;100965.69;4884612;29;793;-44
2021/09/04 04:04:15;;;;;;;;;;;;;;;20.46;58.35;100966.84;4899073;29;816;-43
2021/09/04 04:06:41;;;;;;;;;;;;;;;20.52;58.59;100962.94;4885187;29;785;-44
2021/09/04 04:09:08;;;;;;;;;;;;;;;20.98;57.83;100960.69;4884869;29;786;-44
2021/09/04 04:11:35;;;;;;;;;;;;;;;21.06;57.80;100957.25;4884816;29;2034;-45
2021/09/04 04:14:00;;;;;;;;;;;;;;;21.20;57.44;100954.53;4884875;29;975;-44
2021/09/04 04:16:28;;;;;;;;;;;;;;;21.08;57.94;100957.75;4883515;29;1092;-43
2021/09/04 04:18:55;;;;;;;;;;;;;;;21.10;57.67;100966.56;4884288;29;806;-47
2021/09/04 04:21:20;;;;;;;;;;;;;;;20.79;56.86;100971.72;4884714;29;746;-45
2021/09/04 04:23:46;;;;;;;;;;;;;;;20.17;54.53;100970.53;4884653;29;945;-44
2021/09/04 04:26:12;;;;;;;;;;;;;;;19.51;51.73;100976.66;4884271;29;766;-45
2021/09/04 04:28:38;;;;;;;;;;;;;;;18.96;49.87;100983.94;4882913;29;989;-45
2021/09/04 04:31:05;;;;;;;;;;;;;;;18.72;47.96;100988.41;4884947;29;1982;-46
2021/09/04 04:33:31;;;;;;;;;;;;;;;18.70;49.84;100990.66;4884167;29;742;-43
2021/09/04 04:35:56;;;;;;;;;;;;;;;19.11;53.04;100998.72;4884282;29;801;-48
2021/09/04 04:38:22;;;;;;;;;;;;;;;19.76;54.07;101009.53;4884701;29;796;-43
2021/09/04 04:40:47;;;;;;;;;;;;;;;19.98;55.76;101009.09;4884025;29;816;-46
2021/09/04 04:43:13;;;;;;;;;;;;;;;20.13;56.96;101007.28;4884727;29;781;-50
2021/09/04 04:45:39;;;;;;;;;;;;;;;20.14;58.16;100995.13;4865581;29;745;-45
2021/09/04 04:48:04;;;;;;;;;;;;;;;20.42;58.06;100987.09;4864824;29;757;-48
2021/09/04 04:50:31;;;;;;;;;;;;;;;20.87;57.29;100987.63;4864565;29;1915;-51
2021/09/04 04:52:57;;;;;;;;;;;;;;;20.79;58.07;100991.91;4865699;29;880;-54
2021/09/04 04:55:23;;;;;;;;;;;;;;;20.74;58.68;100997.47;4865040;29;801;-54
2021/09/04 04:57:48;;;;;;;;;;;;;;;20.93;58.37;100999.44;4865860;29;763;-46
2021/09/04 05:00:15;;;;;;;;;;;;;;;21.08;58.07;100998.41;4880577;29;959;-51
2021/09/04 05:02:40;;;;;;;;;;;;;;;21.29;57.26;100990.63;4881575;29;887;-50
2021/09/04 05:05:06;;;;;;;;;;;;;;;20.92;57.87;100993.09;4884568;29;741;-50
2021/09/04 05:07:33;;;;;;;;;;;;;;;20.38;56.31;100986.84;4883996;29;793;-46
2021/09/04 05:10:00;;;;;;;;;;;;;;;19.86;53.82;100992.09;4867075;29;1166;-49
2021/09/04 05:12:26;;;;;;;;;;;;;;;19.56;50.78;100982.97;4884174;29;1974;-58
2021/09/04 05:14:52;;;;;;;;;;;;;;;18.84;49.05;100982.59;4883746;29;998;-47
2021/09/04 05:17:21;;;;;;;;;;;;;;;18.54;47.46;100981.66;4883500;29;998;-46
2021/09/04 05:19:47;;;;;;;;;;;;;;;18.60;49.58;100983.25;4883931;29;745;-46
2021/09/04 05:22:13;;;;;;;;;;;;;;;19.20;52.62;100976.91;4883707;29;801;-44
2021/09/04 05:24:39;;;;;;;;;;;;;;;19.51;54.69;100965.63;4883745;29;754;-46
2021/09/04 05:27:04;;;;;;;;;;;;;;;19.64;56.53;100964.94;4883447;29;769;-44
2021/09/04 05:29:30;;;;;;;;;;;;;;;20.03;57.02;100955.75;4883480;29;1021;-45
2021/09/04 05:31:58;;;;;;;;;;;;;;;20.10;57.91;100959.00;4883178;29;1950;-49
2021/09/04 05:34:27;;;;;;;;;;;;;;;20.27;58.37;100957.69;4883850;29;738;-43
2021/09/04 05:36:55;;;;;;;;;;;;;;;20.49;58.31;100965.44;4883309;29;789;-44
2021/09/04 05:39:20;;;;;;;;;;;;;;;20.46;59.25;100969.63;4882798;29;813;-47
2021/09/04 05:41:46;;;;;;;;;;;;;;;20.62;58.98;100973.03;4883423;29;725;-44
2021/09/04 05:44:14;;;;;;;;;;;;;;;20.96;58.35;100966.50;4883283;29;959;-43
2021/09/04 05:46:40;;;;;;;;;;;;;;;21.01;58.32;100969.22;4882955;29;805;-44
2021/09/04 05:49:05;;;;;;;;;;;;;;;21.19;57.55;100964.75;4883170;29;861;-46
2021/09/04 05:51:31;;;;;;;;;;;;;;;21.27;57.28;100966.03;4882882;29;1981;-42
2021/09/04 05:53:56;;;;;;;;;;;;;;;20.85;58.09;100965.00;4882870;29;814;-44
2021/09/04 05:56:24;;;;;;;;;;;;;;;20.50;55.98;100962.38;4882764;29;805;-43
2021/09/04 05:58:50;;;;;;;;;;;;;;;19.82;53.56;100947.72;4882552;29;955;-44
2021/09/04 06:01:15;;;;;;;;;;;;;;;19.33;51.21;100959.69;4883081;29;784;-45
2021/09/04 06:03:41;;;;;;;;;;;;;;;18.93;48.91;100961.66;4882751;29;829;-44
2021/09/04 06:06:06;;;;;;;;;;;;;;;18.55;47.83;100969.50;4882499;29;773;-43
2021/09/04 06:08:33;;;;;;;;;;;;;;;18.86;49.24;100967.44;4883022;29;757;-43
2021/09/04 06:10:58;;;;;;;;;;;;;;;19.20;52.73;100974.16;4882390;29;1978;-43
2021/09/04 06:13:23;;;;;;;;;;;;;;;19.51;54.91;100977.47;4882480;29;954;-43
2021/09/04 06:15:49;;;;;;;;;;;;;;;19.80;56.03;100982.22;4882865;29;1046;-43
2021/09/04 06:18:14;;;;;;;;;;;;;;;20.01;57.14;100982.84;4882458;29;1218;-51
2021/09/04 06:20:40;;;;;;;;;;;;;;;20.11;57.99;100974.44;4882413;29;852;-45
2021/09/04 06:23:05;;;;;;;;;;;;;;;20.38;58.08;100978.56;4881262;29;788;-46
2021/09/04 06:25:33;;;;;;;;;;;;;;;20.60;58.15;100978.00;4882272;29;777;-49
2021/09/04 06:27:59;;;;;;;;;;;;;;;20.70;58.41;100974.31;4882552;29;833;-44
2021/09/04 06:30:24;;;;;;;;;;;;;;;20.82;58.42;100982.19;4882127;29;1128;-45
2021/09/04 06:32:50;;;;;;;;;;;;;;;20.98;58.20;100977.25;4882400;29;1907;-46
2021/09/04 06:35:15;;;;;;;;;;;;;;;21.07;58.04;100975.47;4879333;29;1293;-45
2021/09/04 06:37:41;;;;;;;;;;;;;;;20.90;58.23;100983.44;4882465;29;789;-46
2021/09/04 06:40:06;;;;;;;;;;;;;;;20.60;57.48;100983.53;4881899;29;856;-44
2021/09/04 06:42:32;;;;;;;;;;;;;;;20.07;55.26;100984.44;4896238;29;838;-44
2021/09/04 06:44:57;;;;;;;;;;;;;;;19.65;52.45;100989.47;4881739;29;1038;-44
2021/09/04 06:47:23;;;;;;;;;;;;;;;19.06;50.34;100988.56;4882079;29;817;-46
2021/09/04 06:49:48;;;;;;;;;;;;;;;18.74;48.03;100992.53;4882035;29;809;-44
2021/09/04 06:52:14;;;;;;;;;;;;;;;18.62;48.10;100990.13;4882250;29;1970;-42
2021/09/04 06:54:39;;;;;;;;;;;;;;;18.74;50.07;100992.53;4881916;29;805;-47
2021/09/04 06:57:05;;;;;;;;;;;;;;;19.27;53.01;101000.25;4881975;29;746;-44
2021/09/04 06:59:30;;;;;;;;;;;;;;;19.55;55.28;100991.53;4881885;29;963;-41
2021/09/04 07:01:56;;;;;;;;;;;;;;;19.80;56.63;100994.06;4881435;29;781;-43
2021/09/04 07:04:21;;;;;;;;;;;;;;;20.09;57.38;100987.72;4882618;29;821;-42
2021/09/04 07:06:46;;;;;;;;;;;;;;;20.14;58.16;100990.41;4882091;29;793;-45
2021/09/04 07:09:12;;;;;;;;;;;;;;;20.34;58.26;100991.31;4884536;29;750;-44
2021/09/04 07:11:38;;;;;;;;;;;;;;;20.35;58.92;100984.69;4885705;29;1973;-44
2021/09/04 07:14:04;;;;;;;;;;;;;;;20.59;58.66;100987.41;4884013;29;1053;-43
2021/09/04 07:16:29;;;;;;;;;;;;;;;20.79;58.30;100989.13;4884103;29;1161;-45
2021/09/04 07:18:58;;;;;;;;;;;;;;;20.98;57.97;100982.78;4885782;29;809;-43
2021/09/04 07:21:26;;;;;;;;;;;;;;;21.03;58.11;100994.59;4884276;29;1021;-44
2021/09/04 07:23:52;;;;;;;;;;;;;;;21.25;57.13;101000.63;4883771;29;835;-44
2021/09/04 07:26:17;;;;;;;;;;;;;;;20.91;55.94;101001.69;4885607;29;785;-45
2021/09/04 07:28:49;;;;;;;;;;;;;;;20.24;54.25;100999.72;4885448;29;966;-43
2021/09/04 07:31:15;;;;;;;;;;;;;;;19.83;51.82;100990.72;4885024;29;1914;-44
2021/09/04 07:33:43;;;;;;;;;;;;;;;19.22;50.15;100991.22;4885557;29;774;-42
2021/09/04 07:36:09;;;;;;;;;;;;;;;18.97;48.22;100985.59;4899503;29;834;-45
2021/09/04 07:38:36;;;;;;;;;;;;;;;18.66;48.38;100997.81;4885249;29;749;-46
2021/09/04 07:41:02;;;;;;;;;;;;;;;18.75;49.89;100998.91;4885702;29;814;-43
2021/09/04 07:43:27;;;;;;;;;;;;;;;19.35;53.35;100998.84;4885105;29;1010;-46
2021/09/04 07:45:53;;;;;;;;;;;;;;;19.76;55.05;100997.69;4885360;29;785;-44
2021/09/04 07:48:18;;;;;;;;;;;;;;;19.99;56.51;100996.09;4885313;29;813;-46
2021/09/04 07:50:44;;;;;;;;;;;;;;;20.24;57.09;100991.44;4884950;29;1914;-45
2021/09/04 07:53:09;;;;;;;;;;;;;;;20.29;57.74;100994.97;4885105;29;762;-44
2021/09/04 07:55:35;;;;;;;;;;;;;;;20.37;58.63;101003.72;4885224;29;797;-45
2021/09/04 07:58:03;;;;;;;;;;;;;;;20.57;58.48;100992.41;4883715;29;1112;-46
2021/09/04 08:00:35;;;;;;;;;;;;;;;20.93;57.71;100989.22;4884309;29;947;-49
2021/09/04 08:03:00;;;;;;;;;;;;;;;21.03;57.88;100983.53;4884970;29;750;-43
2021/09/04 08:05:26;;;;;;;;;;;;;;;20.95;58.18;100981.44;4884772;29;755;-44
2021/09/04 08:07:51;;;;;;;;;;;;;;;21.14;57.82;100977.84;4885242;29;793;-44
2021/09/04 08:10:17;;;;;;;;;;;;;;;20.74;57.86;100975.38;4883533;29;952;-48
2021/09/04 08:12:42;;;;;;;;;;;;;;;20.28;55.95;100975.94;4885013;29;1990;-45
2021/09/04 08:15:08;;;;;;;;;;;;;;;19.94;53.06;100968.56;4883973;29;911;-45
2021/09/04 08:17:33;;;;;;;;;;;;;;;19.41;50.98;100966.53;4885017;29;1121;-44
2021/09/04 08:20:01;;;;;;;;;;;;;;;19.13;48.75;100963.44;4884196;29;745;-50
2021/09/04 08:22:27;;;;;;;;;;;;;;;18.99;48.02;100960.50;4884285;29;875;-48
2021/09/04 08:24:52;;;;;;;;;;;;;;;18.69;47.43;100954.03;4884566;29;825;-50
2021/09/04 08:27:18;;;;;;;;;;;;;;;18.90;51.39;100956.69;4884296;29;848;-44
2021/09/04 08:29:43;;;;;;;;;;;;;;;19.28;54.69;100955.03;4883805;29;1014;-44
2021/09/04 08:32:09;;;;;;;;;;;;;;;19.83;55.94;100957.63;4884070;29;1923;-45
2021/09/04 08:34:34;;;;;;;;;;;;;;;20.11;57.07;100952.38;4882896;29;1013;-44
2021/09/04 08:37:00;;;;;;;;;;;;;;;20.25;57.89;100946.97;4884255;29;808;-45
2021/09/04 08:39:25;;;;;;;;;;;;;;;20.34;58.37;100944.34;4881767;29;1247;-47
2021/09/04 08:41:50;;;;;;;;;;;;;;;20.49;58.50;100941.41;4882006;29;1496;-46
2021/09/04 08:44:16;;;;;;;;;;;;;;;20.72;58.40;100938.94;4897950;29;1122;-52
2021/09/04 08:46:42;;;;;;;;;;;;;;;20.84;58.33;100933.78;4883885;29;742;-43
2021/09/04 08:49:07;;;;;;;;;;;;;;;21.00;57.88;100936.34;4884135;29;780;-47
2021/09/04 08:51:33;;;;;;;;;;;;;;;20.85;58.67;100940.94;4884033;29;1923;-47
2021/09/04 08:53:58;;;;;;;;;;;;;;;21.31;57.41;100933.88;4882627;29;995;-47
2021/09/04 08:56:24;;;;;;;;;;;;;;;21.19;57.45;100934.34;4881555;29;943;-47
2021/09/04 08:58:49;;;;;;;;;;;;;;;20.75;57.34;100938.34;4883771;29;1001;-46
2021/09/04 09:01:16;;;;;;;;;;;;;;;20.34;55.74;100947.13;4883345;29;979;-46
2021/09/04 09:03:41;;;;;;;;;;;;;;;20.09;53.57;100948.25;4883763;29;781;-46
2021/09/04 09:06:07;;;;;;;;;;;;;;;19.83;52.02;100945.78;4883527;29;836;-46
2021/09/04 09:08:32;;;;;;;;;;;;;;;19.30;51.58;100932.69;4883425;29;778;-47
2021/09/04 09:11:00;;;;;;;;;;;;;;;19.24;50.07;100933.88;4883969;29;1911;-46
2021/09/04 09:13:26;;;;;;;;;;;;;;;19.11;49.91;100941.66;4883240;29;967;-48
2021/09/04 09:15:54;;;;;;;;;;;;;;;19.32;49.75;100942.34;4883311;29;801;-50
2021/09/04 09:18:20;;;;;;;;;;;;;;;19.32;51.82;100939.56;4883324;29;1211;-46
2021/09/04 09:20:58;;;;;;;;;;;;;;;19.54;53.91;100948.50;4883460;29;817;-48
2021/09/04 09:23:24;;;;;;;;;;;;;;;19.82;55.68;100944.97;4883479;29;749;-47
2021/09/04 09:25:49;;;;;;;;;;;;;;;19.93;57.18;100947.59;4883504;29;794;-48
2021/09/04 09:28:16;;;;;;;;;;;;;;;20.16;57.53;100952.31;4883442;29;955;-46
2021/09/04 09:30:42;;;;;;;;;;;;;;;20.20;58.47;100954.47;4880319;29;1985;-46
2021/09/04 09:33:08;;;;;;;;;;;;;;;20.42;58.58;100949.22;4883453;29;745;-48
2021/09/04 09:35:35;;;;;;;;;;;;;;;20.72;58.05;100955.53;4883026;29;541;-48
2021/09/04 09:38:01;;;;;;;;;;;;;;;20.65;58.79;100960.53;4883296;29;770;-49
2021/09/04 09:40:27;;;;;;;;;;;;;;;20.85;58.38;100954.75;4883147;29;849;-46
2021/09/04 09:42:52;;;;;;;;;;;;;;;21.23;57.55;100950.34;4882900;29;860;-49
2021/09/04 09:45:18;;;;;;;;;;;;;;;20.81;57.68;100939.09;4882317;29;963;-48
2021/09/04 09:47:53;;;;;;;;;;;;;;;20.47;55.62;100938.13;4883107;29;754;-46
2021/09/04 09:50:18;;;;;;;;;;;;;;;20.07;52.58;100939.44;4883151;29;829;-48
2021/09/04 09:52:44;;;;;;;;;;;;;;;19.59;50.36;100926.41;4883156;29;1903;-46
2021/09/04 09:55:09;;;;;;;;;;;;;;;19.02;49.43;100929.59;4879721;29;1155;-49
2021/09/04 09:57:35;;;;;;;;;;;;;;;18.74;47.97;100925.63;4881512;29;734;-48
2021/09/04 10:00:00;;;;;;;;;;;;;;;18.51;49.35;100929.88;4882280;29;1082;-46
2021/09/04 10:02:26;;;;;;;;;;;;;;;19.15;52.44;100937.22;4881395;29;891;-50
2021/09/04 10:04:52;;;;;;;;;;;;;;;19.46;54.81;100936.97;4882498;29;736;-46
2021/09/04 10:07:17;;;;;;;;;;;;;;;19.82;56.31;100930.31;4881661;29;761;-45
2021/09/04 10:09:42;;;;;;;;;;;;;;;20.09;57.00;100932.53;4882355;29;746;-46
2021/09/04 10:12:08;;;;;;;;;;;;;;;20.27;57.75;100927.31;4881440;29;1970;-51
2021/09/04 10:14:34;;;;;;;;;;;;;;;20.38;58.20;100926.09;4874153;29;1198;-50
2021/09/04 10:17:00;;;;;;;;;;;;;;;20.63;57.93;100927.69;4872591;29;1188;-49
2021/09/04 10:19:26;;;;;;;;;;;;;;;20.70;58.11;100913.53;4881422;29;865;-49
2021/09/04 10:21:59;;;;;;;;;;;;;;;20.85;58.14;100926.31;4882155;29;1104;-50
2021/09/04 10:24:43;;;;;;;;;;;;;;;20.90;58.22;100923.50;4881641;29;809;-52
2021/09/04 10:27:09;;;;;;;;;;;;;;;21.03;57.65;100932.97;4882653;29;754;-46
2021/09/04 10:29:41;;;;;;;;;;;;;;;20.79;57.53;100935.78;4881704;29;1022;-47
2021/09/04 10:32:07;;;;;;;;;;;;;;;20.12;56.02;100931.13;4882283;29;1903;-50
2021/09/04 10:34:33;;;;;;;;;;;;;;;19.88;53.11;100920.88;4882242;29;908;-45
2021/09/04 10:36:58;;;;;;;;;;;;;;;19.42;51.31;100933.16;4881679;29;801;-50
2021/09/04 10:39:24;;;;;;;;;;;;;;;19.12;49.64;100943.28;4882016;29;785;-46
2021/09/04 10:41:50;;;;;;;;;;;;;;;18.85;48.69;100942.91;4882182;29;765;-44
2021/09/04 10:44:15;;;;;;;;;;;;;;;18.88;49.05;100950.66;4881188;29;951;-46
2021/09/04 10:46:44;;;;;;;;;;;;;;;18.95;50.34;100938.19;4882198;29;809;-46
2021/09/04 10:49:09;;;;;;;;;;;;;;;19.06;51.87;100930.66;4880809;29;840;-45
2021/09/04 10:51:48;;;;;;;;;;;;;;;19.20;52.74;100938.31;4881602;29;1972;-50
2021/09/04 10:54:35;;;;;;;;;;;;;;;19.38;53.41;100940.34;4882022;29;730;-46
2021/09/04 10:57:14;;;;;;;;;;;;;;;19.31;54.05;100937.94;4882049;29;777;-47
2021/09/04 10:59:58;;;;;;;;;;;;;;;19.27;54.84;100933.28;4881462;29;951;-45
2021/09/04 11:02:37;;;;;;;;;;;;;;;19.42;54.52;100946.94;4881805;29;785;-46
2021/09/04 11:05:22;;;;;;;;;;;;;;;19.40;55.16;100935.34;4881329;29;786;-47
2021/09/04 11:07:48;;;;;;;;;;;;;;;19.64;55.67;100932.69;4881984;29;2054;-46
2021/09/04 11:10:23;;;;;;;;;;;;;;;20.02;56.01;100942.25;4882010;29;770;-45
2021/09/04 11:13:07;;;;;;;;;;;;;;;20.02;57.10;100947.78;4881432;29;1973;-45
2021/09/04 11:15:32;;;;;;;;;;;;;;;20.21;57.32;100945.09;4881283;29;947;-47
2021/09/04 11:17:58;;;;;;;;;;;;;;;20.34;57.46;100941.59;4881930;29;1049;-46
2021/09/04 11:20:26;;;;;;;;;;;;;;;20.47;57.40;100943.66;4880143;29;802;-44
2021/09/04 11:22:52;;;;;;;;;;;;;;;20.42;58.11;100935.41;4881545;29;849;-46
2021/09/04 11:25:23;;;;;;;;;;;;;;;20.63;57.83;100947.03;4880049;29;1101;-44
2021/09/04 11:27:49;;;;;;;;;;;;;;;20.51;58.38;100930.91;4881710;29;762;-44
2021/09/04 11:30:17;;;;;;;;;;;;;;;20.75;58.04;100921.75;4881840;29;998;-46
2021/09/04 11:32:43;;;;;;;;;;;;;;;20.96;57.34;100922.28;4881673;29;1976;-45
2021/09/04 11:35:10;;;;;;;;;;;;;;;20.99;57.37;100918.91;4881069;29;762;-46
2021/09/04 11:37:38;;;;;;;;;;;;;;;20.81;57.81;100911.44;4881851;29;770;-46
2021/09/04 11:40:10;;;;;;;;;;;;;;;20.49;56.81;100922.06;4881467;29;734;-46
2021/09/04 11:42:56;;;;;;;;;;;;;;;20.00;55.63;100920.47;4881265;29;817;-48
2021/09/04 11:45:22;;;;;;;;;;;;;;;19.79;53.11;100900.53;4880819;29;1354;-48
2021/09/04 11:47:48;;;;;;;;;;;;;;;19.52;51.82;100901.06;4881604;29;804;-46
2021/09/04 11:50:22;;;;;;;;;;;;;;;19.26;50.91;100890.28;4881311;29;880;-49
2021/09/04 11:52:49;;;;;;;;;;;;;;;18.99;50.30;100883.31;4881597;29;1958;-47
2021/09/04 11:55:22;;;;;;;;;;;;;;;19.02;49.56;100877.25;4883557;29;754;-47
2021/09/04 11:57:52;;;;;;;;;;;;;;;18.72;49.43;100878.25;4884750;29;873;-46
2021/09/04 12:00:21;;;;;;;;;;;;;;;18.76;49.54;100888.44;4885191;29;995;-47
2021/09/04 12:02:49;;;;;;;;;;;;;;;19.20;52.15;100889.50;4883294;29;819;-46
2021/09/04 12:05:15;;;;;;;;;;;;;;;19.48;54.97;100890.63;4884164;29;788;-47
2021/09/04 12:07:41;;;;;;;;;;;;;;;19.86;55.74;100889.19;4885246;29;538;-45
2021/09/04 12:10:07;;;;;;;;;;;;;;;20.32;56.21;100896.91;4884657;29;671;-49
2021/09/04 12:12:32;;;;;;;;;;;;;;;20.30;57.32;100888.06;4882875;29;1923;-46
2021/09/04 12:14:58;;;;;;;;;;;;;;;20.25;58.46;100893.69;4884742;29;959;-46
2021/09/04 12:17:23;;;;;;;;;;;;;;;20.55;58.14;100888.84;4884204;29;1234;-46
2021/09/04 12:19:49;;;;;;;;;;;;;;;20.80;57.97;100899.59;4884742;29;855;-46
2021/09/04 12:22:15;;;;;;;;;;;;;;;20.67;58.59;100898.38;4884596;29;824;-46
2021/09/04 12:24:40;;;;;;;;;;;;;;;21.06;57.75;100901.13;4884361;29;761;-47
2021/09/04 12:27:06;;;;;;;;;;;;;;;21.16;57.41;100887.94;4883578;29;1084;-50
2021/09/04 12:29:32;;;;;;;;;;;;;;;21.18;57.75;100896.78;4898210;29;1026;-47
2021/09/04 12:32:04;;;;;;;;;;;;;;;20.97;57.91;100895.44;4884385;29;1910;-46
2021/09/04 12:34:29;;;;;;;;;;;;;;;20.59;56.77;100890.72;4882808;29;1126;-49
2021/09/04 12:36:55;;;;;;;;;;;;;;;20.26;54.35;100885.09;4884322;29;733;-47
2021/09/04 12:39:24;;;;;;;;;;;;;;;19.92;51.97;100890.75;4884583;29;778;-44
2021/09/04 12:42:10;;;;;;;;;;;;;;;19.40;50.21;100882.16;4884306;29;753;-46
2021/09/04 12:44:37;;;;;;;;;;;;;;;18.87;48.89;100863.53;4883496;29;962;-46
2021/09/04 12:47:02;;;;;;;;;;;;;;;18.71;47.45;100865.59;4884087;29;813;-48
2021/09/04 12:49:28;;;;;;;;;;;;;;;18.79;46.89;100854.78;4882795;29;781;-47
2021/09/04 12:51:58;;;;;;;;;;;;;;;18.95;51.46;100862.97;4884123;29;1982;-47